EDDH/HAM METAR and TAF weather

Enter ICAO airport designator
Station Type Date Time Source
EDDH METAR 2017/03/23 17:50 UTC NOAA

EDDH 231750Z 08009KT 9999 BKN030 07/02 Q1023 NOSIG


Station Type Date Time Source
EDDH Decoded METAR 2017/03/23 17:50 UTC NOAA

Hamburg-Fuhlsbuettel, Germany (EDDH) 53-38N 010-00E 15M
Mar 23, 2017 - 01:50 PM EDT / 2017.03.23 1750 UTC
Wind: from the E (080 degrees) at 10 MPH (9 KT):0
Visibility: greater than 7 mile(s):0
Sky conditions: mostly cloudy
Temperature: 44 F (7 C)
Dew Point: 35 F (2 C)
Relative Humidity: 70%
Pressure (altimeter): 30.21 in. Hg (1023 hPa)
ob: EDDH 231750Z 08009KT 9999 BKN030 07/02 Q1023 NOSIG
cycle: 18

Station Type Date Time Source
EDDH TAF 2017/03/23 18:27 UTC NOAA

TAF EDDH 231700Z 2318/2424 05009KT 9999 BKN030
BECMG 2320/2322 02004KT PROB30
TEMPO 2402/2407 2000 BCFG


Example: see airport list